Time;durP1;ratioP1;P1;durP2;ratioP2;P2;SDS_P1;SDS_P2;PMS_P1;PMS_P2;Temp;Humidity;BMP_temperature;BMP_pressure;BME280_temperature;BME280_humidity;BME280_pressure;Samples;Min_cycle;Max_cycle;Signal;HPM_P1;HPM_P2
2023/09/20 00:01:27;;;;;;;6.53;2.37;;;16.60;99.90;;;;;;5092108;28;20538;-68
2023/09/20 00:03:54;;;;;;;12.83;2.93;;;16.60;97.80;;;;;;5092370;28;20477;-67
2023/09/20 00:06:20;;;;;;;9.30;2.57;;;16.70;98.20;;;;;;5092337;28;20496;-68
2023/09/20 00:08:48;;;;;;;6.43;2.27;;;16.70;97.10;;;;;;5092332;28;20450;-68
2023/09/20 00:11:18;;;;;;;7.30;2.37;;;16.70;97.10;;;;;;5092023;28;20458;-68
2023/09/20 00:13:48;;;;;;;12.90;2.77;;;16.80;97.70;;;;;;5092433;28;20433;-68
2023/09/20 00:16:16;;;;;;;8.13;2.40;;;16.70;99.00;;;;;;5092548;28;20453;-68
2023/09/20 00:18:43;;;;;;;7.17;3.00;;;16.60;99.90;;;;;;5092333;28;20503;-68
2023/09/20 00:21:11;;;;;;;7.83;2.80;;;16.60;99.90;;;;;;5091985;28;20515;-68
2023/09/20 00:23:38;;;;;;;9.50;3.07;;;16.50;99.90;;;;;;5092072;28;20474;-68
2023/09/20 00:26:05;;;;;;;5.50;2.77;;;16.50;99.90;;;;;;5092341;28;20477;-68
2023/09/20 00:28:32;;;;;;;6.20;2.80;;;16.40;99.90;;;;;;5092210;28;20453;-68
2023/09/20 00:31:00;;;;;;;10.77;2.80;;;16.50;99.90;;;;;;5091933;28;20445;-68
2023/09/20 00:33:29;;;;;;;6.33;3.10;;;16.40;99.90;;;;;;5092189;28;20453;-67
2023/09/20 00:35:56;;;;;;;11.93;3.50;;;16.50;99.90;;;;;;5094933;28;20452;-68
2023/09/20 00:38:24;;;;;;;6.87;2.80;;;16.50;99.90;;;;;;5095746;28;20489;-67
2023/09/20 00:40:52;;;;;;;5.60;2.80;;;16.40;99.90;;;;;;5095952;28;20455;-68
2023/09/20 00:43:23;;;;;;;8.60;2.90;;;16.40;99.90;;;;;;5095759;28;20480;-68
2023/09/20 00:45:51;;;;;;;9.13;3.77;;;16.30;99.90;;;;;;5095819;28;20452;-68
2023/09/20 00:48:20;;;;;;;9.07;3.30;;;16.30;99.90;;;;;;5095827;28;20479;-68
2023/09/20 00:50:48;;;;;;;11.90;3.60;;;16.30;99.90;;;;;;5095493;28;20533;-68
2023/09/20 00:53:15;;;;;;;6.97;3.30;;;16.40;99.90;;;;;;5095588;28;20452;-68
2023/09/20 00:55:43;;;;;;;5.97;3.50;;;16.40;99.90;;;;;;5095803;28;20480;-67
2023/09/20 00:58:14;;;;;;;7.50;3.40;;;16.50;99.90;;;;;;5095515;28;20452;-67
2023/09/20 01:00:43;;;;;;;9.43;3.60;;;16.60;99.90;;;;;;5095512;28;20858;-68
2023/09/20 01:03:11;;;;;;;6.73;2.80;;;16.70;99.90;;;;;;5095392;28;20470;-68
2023/09/20 01:05:39;;;;;;;5.83;2.63;;;16.80;99.90;;;;;;5095346;28;20518;-67
2023/09/20 01:08:07;;;;;;;9.30;3.37;;;16.80;99.90;;;;;;5095553;28;20453;-68
2023/09/20 01:10:36;;;;;;;10.40;3.20;;;16.90;99.90;;;;;;5095319;28;20994;-68
2023/09/20 01:13:04;;;;;;;12.60;3.33;;;17.00;99.90;;;;;;5095411;28;20540;-69
2023/09/20 01:15:33;;;;;;;11.83;5.23;;;17.00;99.90;;;;;;5095310;28;20471;-68
2023/09/20 01:18:01;;;;;;;13.67;3.60;;;17.00;99.90;;;;;;5095168;28;20936;-68
2023/09/20 01:20:29;;;;;;;8.30;3.20;;;17.00;99.90;;;;;;5095118;28;20454;-67
2023/09/20 01:22:58;;;;;;;6.23;2.80;;;17.00;99.90;;;;;;5095194;28;20840;-68
2023/09/20 01:25:27;;;;;;;8.33;3.40;;;16.90;99.90;;;;;;5095182;28;20443;-68
2023/09/20 01:27:56;;;;;;;8.50;4.03;;;17.00;99.90;;;;;;5095087;28;20480;-67
2023/09/20 01:30:25;;;;;;;6.00;2.40;;;17.00;99.90;;;;;;5094928;28;20537;-68
2023/09/20 01:32:53;;;;;;;11.83;3.40;;;16.90;99.90;;;;;;5094807;28;20887;-67
2023/09/20 01:35:19;;;;;;;10.83;3.30;;;16.90;99.90;;;;;;5095173;28;20450;-68
2023/09/20 01:37:46;;;;;;;11.57;3.70;;;16.70;99.90;;;;;;5094884;28;20469;-68
2023/09/20 01:40:16;;;;;;;9.80;3.00;;;16.60;99.90;;;;;;5094525;28;20454;-68
2023/09/20 01:42:44;;;;;;;9.40;4.00;;;16.50;99.90;;;;;;5094859;28;20477;-68
2023/09/20 01:45:16;;;;;;;9.00;3.93;;;16.40;99.90;;;;;;5094473;28;20451;-68
2023/09/20 01:47:44;;;;;;;6.60;3.87;;;16.30;99.90;;;;;;5093761;28;20445;-68
2023/09/20 01:50:13;;;;;;;12.20;3.67;;;16.20;99.90;;;;;;5094454;28;20658;-68
2023/09/20 01:52:39;;;;;;;7.73;4.47;;;16.20;99.90;;;;;;5094862;28;20535;-68
2023/09/20 01:55:09;;;;;;;7.00;4.83;;;16.10;99.90;;;;;;5094599;28;20445;-68
2023/09/20 01:57:37;;;;;;;8.93;5.37;;;16.00;99.90;;;;;;5094357;28;20505;-68
2023/09/20 02:00:21;;;;;;;10.03;6.67;;;15.90;99.90;;;;;;5094378;28;20463;-68
2023/09/20 02:02:48;;;;;;;7.97;7.20;;;15.90;99.90;;;;;;5094209;28;20990;-68
2023/09/20 02:05:17;;;;;;;10.93;9.73;;;15.90;99.90;;;;;;5094222;28;20459;-68
2023/09/20 02:07:45;;;;;;;10.13;9.10;;;15.90;99.90;;;;;;5094438;28;20452;-68
2023/09/20 02:10:13;;;;;;;13.50;11.53;;;15.90;99.90;;;;;;5093880;28;20974;-68
2023/09/20 02:12:45;;;;;;;15.60;14.00;;;15.90;99.90;;;;;;5094169;28;20485;-68
2023/09/20 02:15:12;;;;;;;13.40;12.40;;;15.70;99.90;;;;;;5094137;28;20448;-68
2023/09/20 02:17:39;;;;;;;14.07;13.10;;;15.80;99.90;;;;;;5094030;28;20448;-68
2023/09/20 02:20:09;;;;;;;14.67;13.63;;;15.90;99.90;;;;;;5093800;28;20456;-68
2023/09/20 02:22:38;;;;;;;14.87;13.87;;;15.80;99.90;;;;;;5093751;28;20455;-68
2023/09/20 02:25:11;;;;;;;17.07;15.83;;;15.80;99.90;;;;;;5094325;28;20448;-68
2023/09/20 02:27:42;;;;;;;18.80;17.13;;;15.80;99.90;;;;;;5093861;28;20928;-67
2023/09/20 02:30:15;;;;;;;17.80;16.50;;;15.80;99.90;;;;;;5093696;28;20448;-68
2023/09/20 02:32:42;;;;;;;19.10;17.60;;;15.80;99.90;;;;;;5093795;28;20453;-68
2023/09/20 02:35:09;;;;;;;23.80;22.40;;;15.80;99.90;;;;;;5093855;28;20457;-69
2023/09/20 02:37:37;;;;;;;21.90;20.50;;;15.70;99.90;;;;;;5093643;28;20944;-68
2023/09/20 02:40:07;;;;;;;21.43;19.80;;;15.70;99.90;;;;;;5093354;28;20509;-68
2023/09/20 02:42:41;;;;;;;24.10;22.60;;;15.70;99.90;;;;;;5093697;28;20449;-68
2023/09/20 02:45:12;;;;;;;23.20;21.70;;;15.60;99.90;;;;;;5093725;28;20786;-68
2023/09/20 02:47:40;;;;;;;37.10;35.30;;;15.60;99.90;;;;;;5093465;28;20457;-68
2023/09/20 02:50:09;;;;;;;46.30;44.30;;;15.60;99.90;;;;;;5093043;28;20936;-68
2023/09/20 02:52:35;;;;;;;58.93;56.23;;;15.50;99.90;;;;;;5093607;28;21042;-68
2023/09/20 02:55:07;;;;;;;83.17;79.87;;;15.30;99.90;;;;;;5093661;28;20452;-68
2023/09/20 02:57:35;;;;;;;99.43;95.57;;;15.30;99.90;;;;;;5093364;28;20457;-68
2023/09/20 03:00:11;;;;;;;97.27;93.17;;;15.30;99.90;;;;;;5093098;28;20455;-68
2023/09/20 03:02:39;;;;;;;119.07;114.60;;;15.20;99.90;;;;;;5093176;28;20447;-68
2023/09/20 03:05:06;;;;;;;142.93;137.67;;;15.00;99.90;;;;;;5093379;28;20472;-68
2023/09/20 03:07:33;;;;;;;163.80;157.70;;;15.00;99.90;;;;;;5093149;28;20542;-68
2023/09/20 03:10:01;;;;;;;173.53;166.73;;;14.80;99.90;;;;;;5093015;28;20468;-68
2023/09/20 03:12:30;;;;;;;221.40;212.70;;;14.80;99.90;;;;;;5092994;28;20965;-68
2023/09/20 03:14:59;;;;;;;273.97;263.07;;;14.70;99.90;;;;;;5093040;28;20439;-68
2023/09/20 03:17:26;;;;;;;255.17;244.40;;;14.60;99.90;;;;;;5092783;28;20445;-68
2023/09/20 03:19:55;;;;;;;264.70;253.27;;;14.50;99.90;;;;;;5092797;28;20529;-68
2023/09/20 03:22:22;;;;;;;287.40;274.53;;;14.40;99.90;;;;;;5092926;28;20507;-68
2023/09/20 03:24:51;;;;;;;316.03;302.03;;;14.40;99.90;;;;;;5092814;28;20477;-68
2023/09/20 03:27:18;;;;;;;270.67;258.33;;;14.40;99.90;;;;;;5092808;28;20453;-68
2023/09/20 03:29:46;;;;;;;298.30;284.33;;;14.30;99.90;;;;;;5092405;28;20485;-68
2023/09/20 03:32:15;;;;;;;312.87;297.93;;;14.30;99.90;;;;;;5093072;28;20439;-68
2023/09/20 03:34:42;;;;;;;332.50;315.90;;;14.20;99.90;;;;;;5092864;28;20528;-68
2023/09/20 03:37:11;;;;;;;329.70;313.30;;;14.20;99.90;;;;;;5092647;28;20800;-68
2023/09/20 03:39:41;;;;;;;366.53;348.67;;;14.20;99.90;;;;;;5092443;28;20545;-68
2023/09/20 03:42:11;;;;;;;354.60;337.27;;;14.10;99.90;;;;;;5092472;28;20457;-68
2023/09/20 03:44:38;;;;;;;357.30;340.20;;;14.10;99.90;;;;;;5092511;28;20481;-68
2023/09/20 03:47:05;;;;;;;381.77;363.90;;;14.00;99.90;;;;;;5092663;28;20449;-68
2023/09/20 03:49:32;;;;;;;425.53;403.43;;;13.80;99.90;;;;;;5092500;28;20533;-68
2023/09/20 03:52:00;;;;;;;455.50;431.73;;;13.80;99.90;;;;;;5092419;28;20970;-68
2023/09/20 03:54:28;;;;;;;472.27;446.60;;;13.70;99.90;;;;;;5092304;28;20533;-68
2023/09/20 03:56:55;;;;;;;538.37;507.77;;;13.70;99.90;;;;;;5092255;28;20485;-68
2023/09/20 03:59:22;;;;;;;515.27;485.27;;;13.60;99.90;;;;;;5092215;28;20449;-68
2023/09/20 04:01:49;;;;;;;599.10;561.63;;;13.60;99.90;;;;;;5092208;28;20453;-68
2023/09/20 04:04:16;;;;;;;569.70;534.93;;;13.70;99.90;;;;;;5092201;28;20473;-67
2023/09/20 04:06:44;;;;;;;576.83;540.50;;;13.80;99.90;;;;;;5092545;28;20536;-68
2023/09/20 04:09:11;;;;;;;531.60;499.27;;;13.80;99.90;;;;;;5092156;28;20485;-68
2023/09/20 04:11:41;;;;;;;513.10;482.57;;;13.70;99.90;;;;;;5096198;28;20444;-68
2023/09/20 04:14:08;;;;;;;567.43;533.67;;;13.70;99.90;;;;;;5096911;28;20805;-68
2023/09/20 04:16:36;;;;;;;527.30;496.53;;;13.80;99.90;;;;;;5096544;28;20455;-68
2023/09/20 04:19:04;;;;;;;510.67;481.80;;;13.70;99.90;;;;;;5096334;28;20552;-68
2023/09/20 04:21:31;;;;;;;500.60;472.13;;;13.70;99.90;;;;;;5096530;28;21000;-68
2023/09/20 04:23:59;;;;;;;498.40;470.47;;;13.70;99.90;;;;;;5096024;28;20469;-68
2023/09/20 04:26:26;;;;;;;494.17;466.00;;;13.70;99.90;;;;;;5096455;28;20446;-68
2023/09/20 04:28:55;;;;;;;506.10;477.50;;;13.70;99.90;;;;;;5095940;28;20449;-68
2023/09/20 04:31:23;;;;;;;533.87;503.23;;;13.70;99.90;;;;;;5095860;28;20936;-68
2023/09/20 04:33:52;;;;;;;543.83;512.93;;;13.70;99.90;;;;;;5096202;28;20442;-68
2023/09/20 04:36:19;;;;;;;534.03;503.23;;;13.70;99.90;;;;;;5096056;28;20445;-68
2023/09/20 04:38:46;;;;;;;535.17;504.47;;;13.80;99.90;;;;;;5095862;28;20480;-69
2023/09/20 04:41:14;;;;;;;541.73;511.33;;;13.70;99.90;;;;;;5095543;28;20449;-68
2023/09/20 04:43:40;;;;;;;523.63;494.13;;;13.70;99.90;;;;;;5096085;28;20972;-68
2023/09/20 04:46:09;;;;;;;537.43;506.30;;;13.70;99.90;;;;;;5095871;28;20449;-68
2023/09/20 04:48:35;;;;;;;546.27;514.63;;;13.70;99.90;;;;;;5095687;28;20457;-67
2023/09/20 04:51:02;;;;;;;559.43;526.90;;;13.70;99.90;;;;;;5095299;28;20687;-67
2023/09/20 04:53:30;;;;;;;560.00;528.17;;;13.80;99.90;;;;;;5095888;28;20532;-68
2023/09/20 04:55:57;;;;;;;529.60;499.53;;;13.90;99.90;;;;;;5095879;28;20823;-68
2023/09/20 04:58:24;;;;;;;523.50;494.13;;;13.80;99.90;;;;;;5095764;28;20540;-67
2023/09/20 05:00:51;;;;;;;518.80;489.40;;;13.80;99.90;;;;;;5095319;28;20861;-68
2023/09/20 05:03:19;;;;;;;509.07;480.30;;;13.90;99.90;;;;;;5095274;28;20552;-68
2023/09/20 05:05:47;;;;;;;505.57;477.47;;;13.80;99.90;;;;;;5095359;28;20456;-68
2023/09/20 05:08:15;;;;;;;501.60;473.80;;;13.80;99.90;;;;;;5095931;28;20451;-68
2023/09/20 05:10:42;;;;;;;557.37;525.63;;;13.80;99.90;;;;;;5095585;28;20778;-68
2023/09/20 05:13:10;;;;;;;522.73;493.33;;;13.90;99.90;;;;;;5095262;28;20450;-68
2023/09/20 05:15:37;;;;;;;530.43;499.63;;;13.90;99.90;;;;;;5095148;28;20445;-68
2023/09/20 05:18:05;;;;;;;527.53;497.93;;;13.90;99.90;;;;;;5095804;28;20454;-69
2023/09/20 05:20:33;;;;;;;501.00;472.93;;;13.90;99.90;;;;;;5094938;28;20453;-68
2023/09/20 05:23:04;;;;;;;515.77;486.83;;;13.90;99.90;;;;;;5095252;28;20456;-68
2023/09/20 05:25:31;;;;;;;499.93;471.30;;;13.90;99.90;;;;;;5095048;28;20985;-68
2023/09/20 05:27:58;;;;;;;481.57;454.20;;;13.90;99.90;;;;;;5094918;28;20461;-68
2023/09/20 05:30:26;;;;;;;453.80;427.70;;;14.00;99.90;;;;;;5094680;28;20453;-68
2023/09/20 05:32:54;;;;;;;458.07;431.77;;;14.10;99.90;;;;;;5094832;28;20940;-68
2023/09/20 05:35:21;;;;;;;446.87;422.03;;;14.20;99.90;;;;;;5094917;28;20471;-68
2023/09/20 05:37:49;;;;;;;448.50;423.93;;;14.20;99.90;;;;;;5094760;28;20952;-67
2023/09/20 05:40:18;;;;;;;464.60;439.30;;;14.10;99.90;;;;;;5094753;28;20449;-69
2023/09/20 05:42:45;;;;;;;472.27;447.70;;;14.00;99.90;;;;;;5105541;28;20920;-68
2023/09/20 05:45:13;;;;;;;481.30;455.97;;;13.90;99.90;;;;;;5113936;28;20472;-68
2023/09/20 05:47:41;;;;;;;510.13;482.97;;;13.80;99.90;;;;;;5113155;28;20460;-67
2023/09/20 05:50:10;;;;;;;524.97;496.27;;;13.80;99.90;;;;;;5114397;28;20506;-67
2023/09/20 05:52:40;;;;;;;565.30;533.97;;;13.70;99.90;;;;;;5114859;28;20509;-68
2023/09/20 05:55:13;;;;;;;606.30;572.10;;;13.70;99.90;;;;;;5114677;28;20441;-68
2023/09/20 05:57:40;;;;;;;646.97;609.77;;;13.70;99.90;;;;;;5114480;28;20445;-68
2023/09/20 06:00:12;;;;;;;714.30;670.87;;;13.70;99.90;;;;;;5114637;28;20448;-68
2023/09/20 06:02:41;;;;;;;729.17;682.67;;;13.80;99.90;;;;;;5114947;28;20449;-68
2023/09/20 06:05:10;;;;;;;737.13;690.73;;;13.80;99.90;;;;;;5114921;28;20838;-68
2023/09/20 06:07:36;;;;;;;693.53;650.83;;;13.80;99.90;;;;;;5114515;28;20481;-68
2023/09/20 06:10:04;;;;;;;745.53;699.93;;;13.90;99.90;;;;;;5114068;28;20449;-69
2023/09/20 06:12:32;;;;;;;740.80;695.63;;;13.90;99.90;;;;;;5114387;28;20449;-68
2023/09/20 06:14:59;;;;;;;746.53;701.83;;;13.90;99.90;;;;;;5114398;28;20448;-68
2023/09/20 06:17:29;;;;;;;781.40;731.53;;;14.00;99.90;;;;;;5114601;28;20531;-68
2023/09/20 06:19:56;;;;;;;720.03;673.37;;;14.10;99.90;;;;;;5114379;28;20793;-68
2023/09/20 06:22:24;;;;;;;727.83;680.67;;;14.20;99.90;;;;;;5113906;28;20454;-68
2023/09/20 06:24:52;;;;;;;666.67;622.93;;;14.30;99.90;;;;;;5111905;28;20472;-68
2023/09/20 06:27:20;;;;;;;689.37;647.07;;;14.50;99.90;;;;;;5114024;28;20456;-68
2023/09/20 06:29:48;;;;;;;679.70;639.10;;;14.60;99.90;;;;;;5113670;28;20445;-68
2023/09/20 06:32:16;;;;;;;655.47;617.60;;;14.70;99.90;;;;;;5113366;28;20815;-68
2023/09/20 06:34:43;;;;;;;614.10;578.30;;;14.80;99.90;;;;;;5114183;28;20453;-68
2023/09/20 06:37:10;;;;;;;558.47;527.27;;;14.90;99.90;;;;;;5113599;28;20450;-68
2023/09/20 06:39:37;;;;;;;515.13;487.50;;;15.00;99.90;;;;;;5113394;28;20454;-68
2023/09/20 06:42:04;;;;;;;487.63;462.50;;;15.10;99.90;;;;;;5113409;28;21001;-68
2023/09/20 06:44:35;;;;;;;465.20;441.90;;;15.30;99.90;;;;;;5113542;28;20560;-68
2023/09/20 06:47:04;;;;;;;444.57;423.87;;;15.40;99.90;;;;;;5113688;28;20450;-68
2023/09/20 06:49:31;;;;;;;437.67;416.90;;;15.50;99.90;;;;;;5113382;28;20443;-68
2023/09/20 06:52:01;;;;;;;404.73;386.33;;;15.60;99.90;;;;;;5112991;28;20445;-69
2023/09/20 06:54:28;;;;;;;376.67;360.87;;;15.70;99.90;;;;;;5113268;28;20862;-68
2023/09/20 06:57:02;;;;;;;367.47;352.47;;;15.80;99.90;;;;;;5112435;28;20451;-68
2023/09/20 06:59:29;;;;;;;338.40;325.40;;;15.90;99.90;;;;;;5112614;28;20538;-68
2023/09/20 07:01:55;;;;;;;329.77;317.30;;;16.00;99.90;;;;;;5112606;28;20451;-69
2023/09/20 07:04:25;;;;;;;298.53;287.67;;;16.10;99.90;;;;;;5112973;28;20475;-68
2023/09/20 07:06:52;;;;;;;268.93;259.70;;;16.10;99.90;;;;;;5113064;28;20550;-68
2023/09/20 07:09:20;;;;;;;210.37;202.93;;;16.20;99.90;;;;;;5113033;28;20528;-69
2023/09/20 07:11:47;;;;;;;188.37;181.77;;;16.20;99.90;;;;;;5113156;28;20864;-68
2023/09/20 07:14:14;;;;;;;167.17;161.27;;;16.30;99.90;;;;;;5113448;28;20445;-68
2023/09/20 07:16:41;;;;;;;161.83;155.93;;;16.30;99.90;;;;;;5113404;28;20542;-68
2023/09/20 07:19:11;;;;;;;151.00;145.67;;;16.30;99.90;;;;;;5112767;28;20804;-65
2023/09/20 07:21:40;;;;;;;188.63;181.88;;;16.30;99.90;;;;;;5112276;28;20549;-67
2023/09/20 07:24:12;;;;;;;109.47;105.37;;;16.40;99.90;;;;;;5113220;28;20230;-67
2023/09/20 07:26:39;;;;;;;103.40;98.67;;;16.40;99.90;;;;;;5112936;28;20536;-68
2023/09/20 07:29:06;;;;;;;120.93;116.33;;;16.40;99.90;;;;;;5113044;28;20449;-67
2023/09/20 07:31:36;;;;;;;133.80;128.83;;;16.40;99.90;;;;;;5112818;28;20491;-67
2023/09/20 07:34:05;;;;;;;138.60;133.60;;;16.40;99.90;;;;;;5113298;28;20447;-67
2023/09/20 07:36:33;;;;;;;156.17;150.67;;;16.40;99.90;;;;;;5113294;28;20449;-66
2023/09/20 07:39:05;;;;;;;154.97;149.37;;;16.40;99.90;;;;;;5113005;28;20892;-67
2023/09/20 07:41:32;;;;;;;155.07;149.73;;;16.50;99.90;;;;;;5112823;28;20499;-66
2023/09/20 07:43:59;;;;;;;165.00;159.07;;;16.50;99.90;;;;;;5112170;28;20984;-65
2023/09/20 07:46:25;;;;;;;152.97;147.67;;;16.60;99.90;;;;;;5112687;28;20483;-66
2023/09/20 07:48:52;;;;;;;143.47;138.27;;;16.60;99.90;;;;;;5112835;28;20500;-66
2023/09/20 07:52:50;;;;;;;130.77;126.07;;;16.80;99.90;;;;;;5130526;27;20557;-65
2023/09/20 07:55:18;;;;;;;89.80;86.40;;;16.90;99.90;;;;;;5130686;27;20797;-65
2023/09/20 07:57:46;;;;;;;63.67;60.83;;;17.10;99.90;;;;;;5130637;27;20446;-66
2023/09/20 08:00:15;;;;;;;74.93;71.93;;;17.20;99.90;;;;;;5129430;27;20441;-66
2023/09/20 08:02:46;;;;;;;37.53;35.77;;;17.40;99.90;;;;;;5130086;27;20515;-66
2023/09/20 08:05:14;;;;;;;29.63;27.90;;;17.60;99.90;;;;;;5130062;27;20479;-65
2023/09/20 08:07:41;;;;;;;14.60;13.50;;;17.80;99.90;;;;;;5129994;27;20525;-66
2023/09/20 08:10:10;;;;;;;21.83;20.50;;;18.00;99.90;;;;;;5131319;28;20449;-65
2023/09/20 08:12:37;;;;;;;13.67;12.40;;;18.30;99.90;;;;;;5131494;27;20500;-66
2023/09/20 08:15:04;;;;;;;9.33;6.80;;;18.60;99.90;;;;;;5131336;27;21027;-65
2023/09/20 08:20:16;;;;;;;10.80;4.27;;;18.90;99.90;;;;;;5129120;28;20489;-66
2023/09/20 09:01:15;;;;;;;8.13;3.87;;;19.70;99.90;;;;;;5129737;28;20429;-69
2023/09/20 09:03:43;;;;;;;6.83;2.10;;;19.70;99.90;;;;;;5118859;27;20442;-69
2023/09/20 09:06:11;;;;;;;8.77;3.20;;;19.70;99.90;;;;;;5116274;28;20440;-69
2023/09/20 09:08:38;;;;;;;9.47;1.90;;;19.80;99.90;;;;;;5116139;28;20448;-69
2023/09/20 09:11:05;;;;;;;9.10;2.73;;;20.00;99.90;;;;;;5116039;28;20838;-69
2023/09/20 09:13:33;;;;;;;4.90;1.93;;;20.30;99.90;;;;;;5116234;28;20935;-70
2023/09/20 09:16:00;;;;;;;5.40;2.10;;;20.90;99.90;;;;;;5115882;28;20940;-69
2023/09/20 09:18:28;;;;;;;5.50;2.07;;;21.40;99.90;;;;;;5115851;28;20483;-69
2023/09/20 09:20:54;;;;;;;4.40;1.73;;;21.80;99.90;;;;;;5116035;28;20450;-69
2023/09/20 09:23:35;;;;;;;4.73;1.73;;;21.90;99.90;;;;;;5115848;28;20451;-69
2023/09/20 09:26:02;;;;;;;5.87;1.80;;;22.00;99.90;;;;;;5115780;28;20458;-69
2023/09/20 09:28:31;;;;;;;6.43;1.93;;;22.40;99.90;;;;;;5115876;28;20542;-69
2023/09/20 09:31:00;;;;;;;6.70;1.53;;;22.80;99.90;;;;;;5115705;28;20451;-70
2023/09/20 09:33:28;;;;;;;5.80;1.93;;;23.00;98.00;;;;;;5115718;28;20983;-69
2023/09/20 09:35:55;;;;;;;5.93;2.10;;;23.50;96.50;;;;;;5115632;28;20943;-69
2023/09/20 09:38:23;;;;;;;5.00;1.50;;;24.00;96.80;;;;;;5115493;28;20453;-69
2023/09/20 09:40:55;;;;;;;7.00;1.53;;;24.70;90.10;;;;;;5115504;28;21023;-69
2023/09/20 09:43:23;;;;;;;7.80;2.07;;;24.90;77.30;;;;;;5115665;27;20532;-69
2023/09/20 09:45:50;;;;;;;5.27;2.00;;;24.90;74.60;;;;;;5115352;27;20463;-69
2023/09/20 09:48:20;;;;;;;5.83;1.50;;;24.90;74.60;;;;;;5115364;28;20451;-70
2023/09/20 09:50:48;;;;;;;5.27;1.93;;;24.30;74.00;;;;;;5115425;28;20464;-69
2023/09/20 09:53:16;;;;;;;8.13;1.67;;;24.00;73.70;;;;;;5115250;28;20460;-69
2023/09/20 09:55:43;;;;;;;5.73;2.00;;;23.90;73.60;;;;;;5115186;28;20475;-70
2023/09/20 09:58:09;;;;;;;4.90;1.30;;;24.00;73.80;;;;;;5115061;28;20451;-70
2023/09/20 10:00:40;;;;;;;5.33;1.67;;;24.00;65.60;;;;;;5114778;28;20543;-69
2023/09/20 10:03:23;;;;;;;4.87;1.40;;;23.90;70.90;;;;;;5114814;28;20444;-69
2023/09/20 10:05:55;;;;;;;9.70;1.83;;;23.80;69.90;;;;;;5114704;28;20448;-71
2023/09/20 10:08:23;;;;;;;4.93;1.43;;;24.00;65.50;;;;;;5114911;28;20535;-69
2023/09/20 10:10:50;;;;;;;5.27;1.33;;;24.00;65.80;;;;;;5114588;28;20449;-71
2023/09/20 10:13:18;;;;;;;5.47;1.67;;;23.80;65.30;;;;;;5114766;28;20483;-69
2023/09/20 10:15:45;;;;;;;5.70;1.40;;;24.00;65.50;;;;;;5113638;28;21034;-70
2023/09/20 10:18:12;;;;;;;5.20;1.40;;;24.30;62.50;;;;;;5114414;28;20543;-69
2023/09/20 10:21:04;;;;;;;8.13;1.33;;;24.20;57.20;;;;;;5114595;28;20454;-70
2023/09/20 10:23:34;;;;;;;6.53;1.70;;;24.00;57.00;;;;;;5114436;28;20440;-69
2023/09/20 10:26:01;;;;;;;4.90;1.40;;;23.90;56.90;;;;;;5114449;28;20453;-70
2023/09/20 10:28:36;;;;;;;5.30;1.50;;;23.80;56.50;;;;;;5114734;28;20452;-69
2023/09/20 10:31:04;;;;;;;6.17;1.40;;;24.20;57.20;;;;;;5114171;28;20433;-70
2023/09/20 10:33:44;;;;;;;5.80;1.60;;;24.20;49.30;;;;;;5114384;28;20449;-69
2023/09/20 10:36:14;;;;;;;8.40;1.57;;;24.50;48.60;;;;;;5114487;28;20468;-69
2023/09/20 10:38:44;;;;;;;6.00;1.73;;;24.80;48.80;;;;;;5113892;28;20851;-71
2023/09/20 10:41:12;;;;;;;4.60;1.43;;;25.30;49.20;;;;;;5114110;28;20810;-69
2023/09/20 10:43:49;;;;;;;12.33;3.20;;;26.10;40.70;;;;;;5114037;28;20963;-69
2023/09/20 10:46:22;;;;;;;6.27;1.90;;;26.40;41.00;;;;;;5114312;28;20428;-69
2023/09/20 10:48:50;;;;;;;6.93;1.70;;;26.40;40.90;;;;;;5114107;28;20452;-69
2023/09/20 10:51:48;;;;;;;12.23;1.60;;;26.20;35.90;;;;;;5113925;28;20547;-69
2023/09/20 10:54:23;;;;;;;5.13;1.33;;;25.80;31.20;;;;;;5113875;28;20459;-69
2023/09/20 10:57:05;;;;;;;8.10;1.63;;;25.30;30.90;;;;;;5113825;28;20962;-69
2023/09/20 10:59:32;;;;;;;4.73;1.20;;;24.90;37.50;;;;;;5114078;28;20436;-70
2023/09/20 11:02:05;;;;;;;9.67;2.03;;;24.70;39.60;;;;;;5113456;28;20494;-69
2023/09/20 11:04:34;;;;;;;6.97;1.30;;;24.50;39.50;;;;;;5113656;28;21011;-71
2023/09/20 11:07:02;;;;;;;5.43;1.70;;;24.40;39.40;;;;;;5113594;28;20444;-69
2023/09/20 11:09:33;;;;;;;5.00;1.50;;;24.80;39.70;;;;;;5113666;28;20419;-69
2023/09/20 11:12:04;;;;;;;6.17;1.47;;;25.70;40.40;;;;;;5113626;28;20463;-69
2023/09/20 11:14:35;;;;;;;6.20;1.63;;;26.40;28.40;;;;;;5113417;27;20448;-69
2023/09/20 11:17:03;;;;;;;7.53;1.80;;;26.80;24.00;;;;;;5113370;28;20445;-71
2023/09/20 11:19:30;;;;;;;4.83;1.47;;;27.10;23.90;;;;;;5113918;28;20503;-69
2023/09/20 11:21:58;;;;;;;4.97;1.40;;;27.10;19.10;;;;;;5113380;28;20440;-69
2023/09/20 11:24:27;;;;;;;4.60;1.10;;;27.40;20.60;;;;;;5113409;28;20531;-69
2023/09/20 11:26:55;;;;;;;4.47;1.37;;;27.00;16.90;;;;;;5112870;27;20445;-70
2023/09/20 11:29:22;;;;;;;6.33;1.27;;;26.30;23.90;;;;;;5113641;28;20475;-69
2023/09/20 11:31:50;;;;;;;5.20;1.20;;;25.80;23.70;;;;;;5113155;28;20468;-73
2023/09/20 11:34:19;;;;;;;4.80;1.37;;;25.50;23.60;;;;;;5113472;28;20444;-71
2023/09/20 11:36:53;;;;;;;4.47;1.10;;;25.80;23.70;;;;;;5113114;28;20455;-69
2023/09/20 11:39:28;;;;;;;6.10;1.97;;;25.90;23.80;;;;;;5112683;28;20444;-72
2023/09/20 11:42:01;;;;;;;6.03;1.17;;;25.70;23.70;;;;;;5104133;28;20450;-69
2023/09/20 11:44:28;;;;;;;5.40;1.40;;;26.20;23.90;;;;;;5112740;28;20445;-72
2023/09/20 11:46:57;;;;;;;5.30;1.47;;;26.10;23.90;;;;;;5112473;28;20448;-64
2023/09/20 11:49:26;;;;;;;8.93;1.73;;;25.80;23.80;;;;;;5112418;28;20459;-66
2023/09/20 11:51:53;;;;;;;8.27;1.80;;;26.20;23.90;;;;;;5111594;28;20517;-64
2023/09/20 11:54:29;;;;;;;8.17;2.17;;;26.50;22.40;;;;;;5112194;28;20459;-65
2023/09/20 11:57:00;;;;;;;5.17;1.60;;;26.30;20.20;;;;;;5112303;28;20462;-66
2023/09/20 11:59:27;;;;;;;6.40;1.70;;;26.20;23.30;;;;;;5112648;28;20492;-66
2023/09/20 12:01:55;;;;;;;5.27;1.30;;;26.80;16.80;;;;;;5112435;28;20470;-65
2023/09/20 12:04:22;;;;;;;5.57;1.30;;;27.10;15.60;;;;;;5112697;28;20448;-69
2023/09/20 12:06:50;;;;;;;4.77;1.20;;;27.00;16.30;;;;;;5113160;28;20452;-69
2023/09/20 12:09:18;;;;;;;5.30;1.30;;;26.90;16.80;;;;;;5113156;28;20470;-69
2023/09/20 12:11:47;;;;;;;5.83;1.83;;;26.60;16.70;;;;;;5112665;28;20551;-70
2023/09/20 12:14:14;;;;;;;5.90;1.60;;;26.20;16.50;;;;;;5113126;28;20462;-69
2023/09/20 12:16:47;;;;;;;7.70;1.63;;;26.40;16.70;;;;;;5112952;28;20451;-70
2023/09/20 12:19:14;;;;;;;5.53;1.30;;;26.70;17.40;;;;;;5113009;28;20412;-70
2023/09/20 12:21:41;;;;;;;5.90;2.00;;;26.50;16.60;;;;;;5112806;28;20943;-70
2023/09/20 12:24:09;;;;;;;5.10;1.53;;;26.40;16.60;;;;;;5112749;28;20444;-69
2023/09/20 12:26:36;;;;;;;6.80;1.57;;;26.70;16.80;;;;;;5112994;28;20448;-70
2023/09/20 12:29:05;;;;;;;4.57;1.40;;;27.00;16.90;;;;;;5112705;28;20463;-70
2023/09/20 12:31:32;;;;;;;5.53;1.67;;;27.10;14.10;;;;;;5112822;28;20448;-69
2023/09/20 12:34:00;;;;;;;5.00;1.33;;;27.40;14.80;;;;;;5112753;28;20476;-69
2023/09/20 12:36:28;;;;;;;5.80;1.70;;;27.70;17.30;;;;;;5113111;28;20498;-70
2023/09/20 12:38:55;;;;;;;6.30;1.97;;;27.70;11.90;;;;;;5115426;28;20426;-70
2023/09/20 12:41:22;;;;;;;8.27;1.70;;;27.30;14.40;;;;;;5116542;28;20455;-69
2023/09/20 12:43:50;;;;;;;9.23;1.53;;;27.50;10.20;;;;;;5116374;28;20448;-70
2023/09/20 12:46:18;;;;;;;7.97;1.90;;;27.10;9.30;;;;;;5116372;28;20448;-70
2023/09/20 12:48:46;;;;;;;5.80;1.80;;;26.90;16.70;;;;;;5116523;27;20546;-71
2023/09/20 12:51:13;;;;;;;6.87;2.20;;;26.60;9.00;;;;;;5116180;28;20467;-69
2023/09/20 12:53:40;;;;;;;7.07;2.03;;;26.60;9.00;;;;;;5116176;28;20476;-72
2023/09/20 12:56:11;;;;;;;8.00;1.50;;;26.20;16.40;;;;;;5116334;28;20444;-69
2023/09/20 12:58:38;;;;;;;6.30;1.97;;;25.90;17.00;;;;;;5116727;28;20474;-69
2023/09/20 13:01:07;;;;;;;5.50;2.17;;;26.40;16.50;;;;;;5116439;28;20444;-69
2023/09/20 13:03:35;;;;;;;7.00;2.00;;;26.80;14.20;;;;;;5116323;28;20452;-71
2023/09/20 13:06:02;;;;;;;4.80;1.67;;;27.00;9.20;;;;;;5116273;28;20455;-69
2023/09/20 13:08:29;;;;;;;6.43;1.90;;;27.60;9.50;;;;;;5116032;28;20484;-71
2023/09/20 13:10:56;;;;;;;5.53;1.93;;;27.40;9.50;;;;;;5115678;28;20531;-71
2023/09/20 13:13:22;;;;;;;6.30;1.87;;;27.00;1.60;;;;;;5115745;28;20476;-71
2023/09/20 13:15:50;;;;;;;9.27;1.80;;;27.20;9.40;;;;;;5116172;28;20818;-70
2023/09/20 13:18:17;;;;;;;5.23;1.73;;;27.10;9.20;;;;;;5115763;28;20928;-72